Time;durP1;ratioP1;P1;durP2;ratioP2;P2;SDS_P1;SDS_P2;PMS_P1;PMS_P2;Temp;Humidity;BMP_temperature;BMP_pressure;BME280_temperature;BME280_humidity;BME280_pressure;Samples;Min_cycle;Max_cycle;Signal;HPM_P1;HPM_P2
2021/12/30 00:02:39;;;;;;;31.52;17.02;;;;;;;5.79;100.00;100504.22;10139009;28;20078;-69
2021/12/30 00:07:36;;;;;;;32.28;17.20;;;;;;;5.69;100.00;100500.53;10132158;28;20045;-70
2021/12/30 00:12:33;;;;;;;39.35;18.30;;;;;;;5.70;100.00;100495.91;10146185;28;20051;-68
2021/12/30 00:17:29;;;;;;;30.70;18.00;;;;;;;5.80;100.00;100511.25;10140757;28;20757;-68
2021/12/30 00:22:27;;;;;;;30.17;15.82;;;;;;;5.77;100.00;100522.69;10126105;28;20097;-68
2021/12/30 00:27:23;;;;;;;28.20;15.60;;;;;;;5.84;100.00;100523.16;10144472;28;20473;-68
2021/12/30 00:32:20;;;;;;;33.55;18.13;;;;;;;5.84;100.00;100544.84;10130767;28;20050;-68
2021/12/30 00:37:16;;;;;;;30.85;16.98;;;;;;;5.93;100.00;100539.59;10129522;28;20562;-68
2021/12/30 00:42:13;;;;;;;31.42;17.92;;;;;;;6.14;100.00;100534.75;10137514;28;20498;-69
2021/12/30 00:47:09;;;;;;;31.98;18.63;;;;;;;6.30;100.00;100547.81;10132468;28;20137;-70
2021/12/30 00:52:06;;;;;;;39.83;20.20;;;;;;;6.35;100.00;100541.50;10133834;28;20829;-70
2021/12/30 00:57:02;;;;;;;41.63;22.45;;;;;;;6.46;100.00;100551.13;10131298;28;20505;-69
2021/12/30 01:01:59;;;;;;;49.90;24.30;;;;;;;6.51;100.00;100537.44;10127249;28;20054;-69
2021/12/30 01:06:56;;;;;;;52.63;25.75;;;;;;;6.57;100.00;100557.22;10117291;28;20093;-69
2021/12/30 01:11:54;;;;;;;58.63;27.30;;;;;;;6.61;100.00;100557.41;10123933;28;20062;-69
2021/12/30 01:16:56;;;;;;;67.85;28.42;;;;;;;6.62;100.00;100586.22;10105552;28;20054;-69
2021/12/30 01:21:53;;;;;;;65.47;28.40;;;;;;;6.67;100.00;100584.22;10120813;28;20083;-69
2021/12/30 01:26:50;;;;;;;61.08;28.83;;;;;;;6.69;100.00;100592.88;10104180;28;20113;-69
2021/12/30 01:31:47;;;;;;;74.03;31.73;;;;;;;6.75;100.00;100607.19;10141981;28;20046;-68
2021/12/30 01:36:49;;;;;;;64.87;32.43;;;;;;;6.81;100.00;100632.41;10136985;28;20425;-69
2021/12/30 01:41:46;;;;;;;71.85;30.63;;;;;;;6.82;100.00;100634.78;10127677;28;20470;-69
2021/12/30 01:46:49;;;;;;;75.33;32.33;;;;;;;6.87;100.00;100637.47;10138836;28;20066;-69
2021/12/30 01:51:45;;;;;;;63.10;30.25;;;;;;;6.90;100.00;100647.72;10151373;28;20638;-69
2021/12/30 01:56:42;;;;;;;67.40;30.48;;;;;;;6.93;100.00;100651.78;10125237;28;20058;-69
2021/12/30 02:01:39;;;;;;;78.15;29.10;;;;;;;6.99;100.00;100649.81;10128863;28;20054;-69
2021/12/30 02:06:35;;;;;;;67.93;30.52;;;;;;;7.01;100.00;100674.75;10135305;28;20043;-69
2021/12/30 02:11:32;;;;;;;71.88;31.42;;;;;;;7.00;100.00;100663.06;10132708;28;20109;-69
2021/12/30 02:16:29;;;;;;;52.88;26.00;;;;;;;7.04;100.00;100674.19;10120599;28;20059;-69
2021/12/30 02:21:25;;;;;;;59.03;26.58;;;;;;;7.08;100.00;100686.91;10146513;28;20489;-68
2021/12/30 02:26:22;;;;;;;60.65;27.00;;;;;;;7.10;100.00;100701.00;10144369;28;20085;-70
2021/12/30 02:31:23;;;;;;;61.42;26.48;;;;;;;7.12;100.00;100703.41;10133107;28;20053;-69
2021/12/30 02:36:28;;;;;;;50.90;23.67;;;;;;;7.12;100.00;100709.66;10134077;28;20047;-71
2021/12/30 02:41:26;;;;;;;53.95;24.40;;;;;;;7.18;100.00;100707.69;10142818;28;20080;-71
2021/12/30 02:46:24;;;;;;;54.97;21.67;;;;;;;7.15;100.00;100694.69;10130798;28;20073;-71
2021/12/30 02:51:21;;;;;;;57.15;22.23;;;;;;;7.21;100.00;100728.84;10139280;28;20047;-71
2021/12/30 02:56:21;;;;;;;43.30;18.88;;;;;;;7.25;100.00;100753.53;10136956;28;20050;-70
2021/12/30 03:01:27;;;;;;;41.40;18.60;;;;;;;7.26;100.00;100753.22;10134447;28;20084;-71
2021/12/30 03:06:25;;;;;;;41.00;15.43;;;;;;;7.29;100.00;100774.41;10127832;28;20781;-72
2021/12/30 03:11:23;;;;;;;42.03;16.42;;;;;;;7.31;100.00;100788.53;10136489;28;20133;-72
2021/12/30 03:16:32;;;;;;;42.60;16.05;;;;;;;7.33;100.00;100797.22;10147126;28;20051;-71
2021/12/30 03:21:29;;;;;;;41.80;14.77;;;;;;;7.35;100.00;100789.53;10123282;28;20070;-72
2021/12/30 03:26:26;;;;;;;38.60;12.23;;;;;;;7.37;100.00;100790.06;10133669;28;20045;-70
2021/12/30 03:31:22;;;;;;;38.92;12.00;;;;;;;7.38;100.00;100791.69;10136566;28;20042;-71
2021/12/30 03:36:20;;;;;;;33.58;11.63;;;;;;;7.36;100.00;100791.19;10143959;28;20054;-72
2021/12/30 03:41:21;;;;;;;41.78;11.65;;;;;;;7.38;100.00;100815.38;10136777;28;20042;-72
2021/12/30 03:46:17;;;;;;;32.95;10.77;;;;;;;7.36;100.00;100812.94;10129352;28;20582;-71
2021/12/30 03:51:24;;;;;;;28.00;9.85;;;;;;;7.33;100.00;100791.78;10142935;28;20510;-71
2021/12/30 03:56:26;;;;;;;37.83;11.23;;;;;;;7.30;100.00;100819.53;10148824;28;20057;-71
2021/12/30 04:01:25;;;;;;;27.05;9.35;;;;;;;7.27;100.00;100819.34;10133269;28;20105;-71
2021/12/30 04:06:23;;;;;;;37.33;9.85;;;;;;;7.30;100.00;100813.28;10143525;28;20062;-71
2021/12/30 04:11:23;;;;;;;35.15;8.73;;;;;;;7.29;100.00;100815.22;10137264;28;20458;-70
2021/12/30 04:16:20;;;;;;;32.53;8.70;;;;;;;7.26;100.00;100823.13;10148701;28;20422;-69
2021/12/30 04:21:21;;;;;;;39.67;9.15;;;;;;;7.17;100.00;100831.13;10144220;28;20675;-70
2021/12/30 04:26:18;;;;;;;36.38;8.38;;;;;;;7.16;100.00;100821.38;10145628;28;20050;-70
2021/12/30 04:31:16;;;;;;;32.00;8.98;;;;;;;7.13;100.00;100794.78;10146018;28;20113;-71
2021/12/30 04:36:13;;;;;;;28.45;7.40;;;;;;;7.08;100.00;100805.72;10146376;28;20061;-70
2021/12/30 04:41:09;;;;;;;36.28;9.23;;;;;;;7.04;100.00;100805.47;10140490;28;20062;-70
2021/12/30 04:46:06;;;;;;;36.97;9.27;;;;;;;7.02;100.00;100796.81;10132321;28;20042;-71
2021/12/30 04:51:02;;;;;;;53.22;10.32;;;;;;;6.97;100.00;100798.78;10135778;28;20050;-69
2021/12/30 04:55:59;;;;;;;40.15;10.02;;;;;;;6.97;100.00;100815.91;10136858;28;20050;-69
2021/12/30 05:00:55;;;;;;;40.97;10.52;;;;;;;6.94;100.00;100789.31;10121943;28;20050;-70
2021/12/30 05:05:55;;;;;;;40.00;10.82;;;;;;;6.97;100.00;100804.22;10139647;28;20046;-69
2021/12/30 05:10:52;;;;;;;32.75;9.77;;;;;;;6.93;100.00;100804.78;10143807;28;20073;-71
2021/12/30 05:15:49;;;;;;;38.35;9.07;;;;;;;6.90;100.00;100794.50;10161724;28;20062;-70
2021/12/30 05:20:47;;;;;;;45.95;10.95;;;;;;;6.97;100.00;100790.63;10144870;28;20502;-71
2021/12/30 05:25:44;;;;;;;37.30;11.20;;;;;;;7.05;100.00;100801.66;10140006;28;20046;-70
2021/12/30 05:30:41;;;;;;;45.85;12.20;;;;;;;7.15;100.00;100833.34;10143435;28;20092;-69
2021/12/30 05:35:37;;;;;;;46.38;13.07;;;;;;;7.24;100.00;100842.50;10141187;28;20074;-71
2021/12/30 05:40:35;;;;;;;46.35;12.88;;;;;;;7.25;100.00;100833.22;10143302;28;20475;-70
2021/12/30 05:45:31;;;;;;;54.95;15.70;;;;;;;7.28;100.00;100824.47;10144991;28;20054;-70
2021/12/30 05:50:31;;;;;;;48.55;11.88;;;;;;;7.30;100.00;100824.97;10132580;28;20097;-70
2021/12/30 05:55:28;;;;;;;54.95;13.52;;;;;;;7.32;100.00;100855.41;10135175;28;20182;-68
2021/12/30 06:00:29;;;;;;;44.00;11.95;;;;;;;7.30;100.00;100873.94;10109072;28;20042;-67
2021/12/30 06:05:26;;;;;;;39.60;11.77;;;;;;;7.34;100.00;100868.72;10144513;28;20092;-67
2021/12/30 06:10:22;;;;;;;53.05;12.25;;;;;;;7.35;100.00;100873.88;10136557;28;20069;-66
2021/12/30 06:15:19;;;;;;;42.90;12.15;;;;;;;7.36;100.00;100871.97;10133263;28;20457;-67
2021/12/30 06:20:15;;;;;;;51.80;11.93;;;;;;;7.38;100.00;100859.69;10124665;28;20089;-67
2021/12/30 06:25:12;;;;;;;46.90;12.88;;;;;;;7.40;100.00;100866.75;10127395;28;20100;-66
2021/12/30 06:30:09;;;;;;;50.05;14.45;;;;;;;7.41;100.00;100873.81;10135838;28;20240;-65
2021/12/30 06:35:08;;;;;;;50.67;14.95;;;;;;;7.47;100.00;100861.75;10134082;28;20046;-66
2021/12/30 06:40:07;;;;;;;50.40;14.32;;;;;;;7.47;100.00;100872.63;10131637;28;20078;-65
2021/12/30 06:45:04;;;;;;;55.83;16.30;;;;;;;7.49;100.00;100876.66;10151000;28;20513;-67
2021/12/30 06:50:02;;;;;;;52.38;15.07;;;;;;;7.48;100.00;100893.31;10139843;28;20152;-65
2021/12/30 06:54:59;;;;;;;60.17;16.23;;;;;;;7.52;100.00;100899.75;10157154;28;20089;-66
2021/12/30 06:59:55;;;;;;;63.42;19.23;;;;;;;7.52;100.00;100881.53;10111803;28;20186;-66
2021/12/30 07:04:52;;;;;;;60.80;17.90;;;;;;;7.51;100.00;100870.94;10138292;28;20062;-66
2021/12/30 07:09:49;;;;;;;57.20;16.75;;;;;;;7.55;100.00;100880.16;10137384;28;20093;-66
2021/12/30 07:14:46;;;;;;;57.08;16.88;;;;;;;7.56;100.00;100870.88;10129247;28;20133;-66
2021/12/30 07:19:44;;;;;;;56.42;17.30;;;;;;;7.54;100.00;100878.50;10123075;28;20051;-66
2021/12/30 07:24:41;;;;;;;52.05;16.98;;;;;;;7.59;100.00;100892.06;10111093;28;20078;-66
2021/12/30 07:29:37;;;;;;;55.22;17.10;;;;;;;7.62;100.00;100899.63;10151192;28;20141;-67
2021/12/30 07:34:34;;;;;;;59.20;17.50;;;;;;;7.69;100.00;100916.41;10145224;28;20105;-67
2021/12/30 07:39:30;;;;;;;52.95;17.27;;;;;;;7.67;100.00;100899.56;10137495;28;20503;-67
2021/12/30 07:44:27;;;;;;;60.85;17.45;;;;;;;7.66;100.00;100900.69;10141834;28;20499;-67
2021/12/30 07:49:43;;;;;;;64.13;17.55;;;;;;;7.72;100.00;100910.38;10131987;28;20105;-66
2021/12/30 07:54:40;;;;;;;51.90;17.42;;;;;;;7.74;100.00;100905.44;10145887;28;20571;-67
2021/12/30 07:59:37;;;;;;;58.75;17.45;;;;;;;7.78;100.00;100906.50;10133247;28;20400;-66
2021/12/30 08:04:34;;;;;;;57.40;17.05;;;;;;;7.84;100.00;100914.56;10144765;28;20250;-67
2021/12/30 08:09:31;;;;;;;59.08;19.48;;;;;;;7.86;100.00;100928.69;10145658;28;20045;-68
2021/12/30 08:14:28;;;;;;;51.75;17.85;;;;;;;7.90;100.00;100914.22;10145967;28;20157;-68
2021/12/30 08:19:24;;;;;;;61.60;18.52;;;;;;;7.91;100.00;100917.72;10145275;28;20555;-67
2021/12/30 08:24:21;;;;;;;66.88;20.00;;;;;;;8.03;100.00;100901.78;10143526;28;20069;-66
2021/12/30 08:29:38;;;;;;;61.72;19.60;;;;;;;8.08;100.00;100915.31;10142674;28;20490;-66
2021/12/30 08:34:34;;;;;;;73.25;21.98;;;;;;;8.07;100.00;100924.56;10130244;28;20050;-66
2021/12/30 08:39:34;;;;;;;68.38;22.52;;;;;;;8.15;100.00;100942.97;10122776;28;20482;-67
2021/12/30 08:44:31;;;;;;;67.47;20.77;;;;;;;8.18;100.00;100942.38;10141293;28;20046;-67
2021/12/30 08:49:27;;;;;;;59.22;20.02;;;;;;;8.23;100.00;100934.13;10119683;28;20510;-67
2021/12/30 08:54:24;;;;;;;70.85;24.83;;;;;;;8.32;100.00;100928.81;10137792;28;20050;-67
2021/12/30 08:59:20;;;;;;;59.40;21.13;;;;;;;8.35;100.00;100938.31;10118440;28;20047;-66
2021/12/30 09:04:22;;;;;;;61.80;21.77;;;;;;;8.34;100.00;100934.78;10137842;28;20050;-66
2021/12/30 09:09:20;;;;;;;64.38;23.90;;;;;;;8.41;100.00;100937.16;10133602;28;20495;-67
2021/12/30 09:14:17;;;;;;;63.03;23.23;;;;;;;8.45;100.00;100930.00;10122122;28;20050;-66
2021/12/30 09:19:13;;;;;;;79.00;24.83;;;;;;;8.51;100.00;100919.81;10114385;28;20170;-65
2021/12/30 09:24:11;;;;;;;75.85;24.55;;;;;;;8.54;100.00;100917.31;10136232;28;20051;-67
2021/12/30 09:29:10;;;;;;;79.13;28.15;;;;;;;8.55;100.00;100916.19;10137466;28;20078;-67
2021/12/30 09:34:08;;;;;;;70.32;26.73;;;;;;;8.55;100.00;100918.91;10115487;28;20078;-67
2021/12/30 09:39:07;;;;;;;85.15;29.20;;;;;;;8.61;100.00;100912.28;10130406;28;20137;-67
2021/12/30 09:44:07;;;;;;;84.03;29.15;;;;;;;8.66;100.00;100913.28;10130789;28;20485;-67
2021/12/30 09:49:05;;;;;;;97.35;29.95;;;;;;;8.62;100.00;100897.53;10120288;28;20137;-67
2021/12/30 09:54:03;;;;;;;79.72;29.38;;;;;;;8.72;100.00;100890.28;10130750;28;20046;-67
2021/12/30 09:59:00;;;;;;;86.10;30.35;;;;;;;8.68;100.00;100894.72;10122627;28;20077;-67
2021/12/30 10:03:57;;;;;;;81.32;27.33;;;;;;;8.69;100.00;100891.69;10128822;28;20499;-67
2021/12/30 10:09:09;;;;;;;73.45;26.80;;;;;;;8.70;100.00;100892.50;10135427;28;20109;-68
2021/12/30 10:14:06;;;;;;;78.05;26.95;;;;;;;8.72;100.00;100898.47;10135666;28;20687;-68
2021/12/30 10:19:10;;;;;;;77.88;26.38;;;;;;;8.76;100.00;100896.75;10135092;28;20050;-68
2021/12/30 10:24:09;;;;;;;54.95;23.77;;;;;;;8.79;100.00;100901.59;10127675;28;20096;-67
2021/12/30 10:29:06;;;;;;;59.97;22.05;;;;;;;8.86;100.00;100877.47;10133583;28;20121;-68
2021/12/30 10:34:05;;;;;;;61.58;23.63;;;;;;;8.91;100.00;100866.47;10163483;28;20132;-68
2021/12/30 10:39:29;;;;;;;55.05;22.95;;;;;;;8.96;100.00;100857.38;10141507;28;20046;-67
2021/12/30 10:44:49;;;;;;;44.80;19.27;;;;;;;9.02;100.00;100856.97;10138670;28;20079;-67
2021/12/30 10:50:06;;;;;;;44.55;19.55;;;;;;;9.08;100.00;100862.34;10146924;28;20043;-67
2021/12/30 10:55:11;;;;;;;34.85;16.80;;;;;;;9.17;100.00;100868.69;10139902;28;20058;-67
2021/12/30 11:00:09;;;;;;;31.77;15.70;;;;;;;9.25;100.00;100865.22;10133252;28;20562;-66
2021/12/30 11:05:10;;;;;;;23.35;12.80;;;;;;;9.32;100.00;100857.44;10141086;28;20054;-68
2021/12/30 11:10:07;;;;;;;26.25;11.30;;;;;;;9.38;100.00;100853.50;10140689;28;20105;-68
2021/12/30 11:15:18;;;;;;;19.15;10.02;;;;;;;9.43;100.00;100839.72;10149576;28;20477;-68
2021/12/30 11:20:17;;;;;;;23.13;10.95;;;;;;;9.52;100.00;100858.94;10144408;28;20042;-68
2021/12/30 11:25:17;;;;;;;19.08;9.93;;;;;;;9.58;100.00;100840.50;10146927;28;20061;-67
2021/12/30 11:30:17;;;;;;;17.65;8.40;;;;;;;9.64;100.00;100836.53;10142082;28;20055;-68
2021/12/30 11:35:16;;;;;;;15.95;8.40;;;;;;;9.70;100.00;100838.06;10147647;28;20133;-68
2021/12/30 11:40:18;;;;;;;15.40;8.55;;;;;;;9.82;100.00;100824.66;10145035;28;20054;-68
2021/12/30 11:45:34;;;;;;;17.40;8.73;;;;;;;9.92;100.00;100817.31;10130469;28;20428;-68
2021/12/30 11:50:37;;;;;;;13.68;7.15;;;;;;;9.95;100.00;100830.34;10142437;28;20100;-68
2021/12/30 11:55:42;;;;;;;13.63;7.70;;;;;;;10.00;100.00;100824.75;10161366;28;20485;-67
2021/12/30 12:00:39;;;;;;;14.43;8.32;;;;;;;10.02;100.00;100828.00;10138828;28;20066;-67
2021/12/30 12:05:41;;;;;;;16.15;9.40;;;;;;;10.02;100.00;100831.53;10141378;28;20537;-66
2021/12/30 12:10:44;;;;;;;12.40;6.17;;;;;;;10.09;100.00;100842.00;10143316;28;20134;-68
2021/12/30 12:15:43;;;;;;;12.25;7.25;;;;;;;10.09;100.00;100839.28;10138646;28;20462;-66
2021/12/30 12:20:51;;;;;;;11.80;6.97;;;;;;;10.17;100.00;100835.81;10140725;28;20613;-67
2021/12/30 12:26:04;;;;;;;11.55;6.82;;;;;;;10.19;100.00;100828.13;10141637;28;20065;-67
2021/12/30 12:31:02;;;;;;;10.68;6.03;;;;;;;10.22;100.00;100827.47;10139051;28;20474;-66
2021/12/30 12:36:01;;;;;;;9.68;5.75;;;;;;;10.22;100.00;100822.00;10128798;28;20073;-66
2021/12/30 12:40:59;;;;;;;9.98;5.05;;;;;;;10.27;100.00;100830.06;10127976;28;20045;-66
2021/12/30 12:46:04;;;;;;;8.10;5.40;;;;;;;10.31;100.00;100813.91;10138682;28;20108;-66
2021/12/30 12:51:08;;;;;;;9.63;5.45;;;;;;;10.38;100.00;100825.19;10126412;28;20133;-67
2021/12/30 12:56:21;;;;;;;9.30;5.63;;;;;;;10.40;100.00;100824.88;10147125;28;20037;-67
2021/12/30 13:01:24;;;;;;;7.75;4.68;;;;;;;10.45;100.00;100822.81;10134344;28;20077;-67
2021/12/30 13:06:43;;;;;;;5.75;3.83;;;;;;;10.54;100.00;100820.13;10133001;28;20049;-67
2021/12/30 13:11:45;;;;;;;5.55;3.55;;;;;;;10.56;100.00;100826.09;10132297;28;20101;-67
2021/12/30 13:16:44;;;;;;;3.80;2.10;;;;;;;10.58;100.00;100829.28;10132317;28;20092;-67
2021/12/30 13:21:59;;;;;;;4.78;2.55;;;;;;;10.60;100.00;100827.03;10128652;28;20077;-67
2021/12/30 13:26:57;;;;;;;3.40;1.70;;;;;;;10.64;100.00;100843.66;10119156;28;20069;-66
2021/12/30 13:32:09;;;;;;;3.30;1.33;;;;;;;10.67;100.00;100849.28;10138909;28;20054;-67
2021/12/30 13:37:18;;;;;;;3.83;2.03;;;;;;;10.68;100.00;100844.63;10137900;28;20717;-67
2021/12/30 13:42:18;;;;;;;4.80;1.05;;;;;;;10.73;100.00;100852.69;10143396;28;20177;-66
2021/12/30 13:47:45;;;;;;;2.47;1.00;;;;;;;10.74;100.00;100855.13;10137048;28;20093;-67
2021/12/30 13:52:44;;;;;;;3.20;0.88;;;;;;;10.74;100.00;100855.13;10142610;28;20097;-66
2021/12/30 13:57:42;;;;;;;4.90;2.03;;;;;;;10.76;100.00;100852.06;10139155;28;20543;-66
2021/12/30 14:02:39;;;;;;;2.30;0.85;;;;;;;10.79;100.00;100858.81;10139202;28;20422;-67
2021/12/30 14:07:44;;;;;;;2.08;0.73;;;;;;;10.79;100.00;100851.44;10118794;28;20043;-67
2021/12/30 14:13:02;;;;;;;2.72;0.50;;;;;;;10.80;100.00;100861.25;10120711;28;20050;-67
2021/12/30 14:18:02;;;;;;;1.77;0.70;;;;;;;10.82;100.00;100885.56;10118519;28;20102;-67
2021/12/30 14:22:59;;;;;;;2.53;1.00;;;;;;;10.83;100.00;100884.41;10134887;28;20121;-67
2021/12/30 14:28:03;;;;;;;1.75;0.77;;;;;;;10.85;100.00;100893.13;10138708;28;20073;-68
2021/12/30 14:33:34;;;;;;;1.85;0.93;;;;;;;10.85;100.00;100898.59;10142029;28;20129;-67
2021/12/30 14:38:30;;;;;;;1.83;0.80;;;;;;;10.85;100.00;100893.91;10076840;28;20495;-67
2021/12/30 14:43:26;;;;;;;1.90;0.80;;;;;;;10.87;100.00;100912.75;10106537;28;20130;-67
2021/12/30 14:48:29;;;;;;;1.70;0.65;;;;;;;10.86;100.00;100905.66;10120168;28;21090;-68
2021/12/30 14:53:32;;;;;;;2.75;1.20;;;;;;;10.86;100.00;100905.66;10149584;28;20129;-68
2021/12/30 14:58:28;;;;;;;3.47;1.60;;;;;;;10.86;100.00;100914.69;10135047;28;20121;-67
2021/12/30 15:03:24;;;;;;;2.88;1.42;;;;;;;10.85;100.00;100924.00;10144638;28;20050;-67
2021/12/30 15:08:21;;;;;;;4.80;1.30;;;;;;;10.89;100.00;100925.00;10135180;28;20041;-67
2021/12/30 15:13:19;;;;;;;6.00;1.40;;;;;;;10.91;100.00;100930.16;10138347;28;20089;-67
2021/12/30 15:18:15;;;;;;;3.53;1.75;;;;;;;10.89;100.00;100951.56;10139630;28;20074;-67
2021/12/30 15:23:15;;;;;;;3.53;1.58;;;;;;;10.92;100.00;100959.94;10136172;28;20537;-67
2021/12/30 15:28:12;;;;;;;4.32;1.98;;;;;;;10.92;100.00;100964.59;10137696;28;20043;-68
2021/12/30 15:33:08;;;;;;;4.65;2.15;;;;;;;10.92;100.00;100970.88;10146099;28;20502;-67
2021/12/30 15:38:05;;;;;;;5.97;2.20;;;;;;;10.92;100.00;100981.00;10143260;28;20074;-68
2021/12/30 15:43:02;;;;;;;4.78;2.03;;;;;;;10.92;100.00;100983.75;10134611;28;20487;-67
2021/12/30 15:47:59;;;;;;;6.13;1.83;;;;;;;10.91;100.00;101002.09;10140809;28;20085;-68
2021/12/30 15:53:00;;;;;;;6.38;2.65;;;;;;;10.93;100.00;101009.97;10148545;28;20046;-68
2021/12/30 15:57:59;;;;;;;5.82;2.80;;;;;;;10.91;100.00;100998.56;10143101;28;20069;-69
2021/12/30 16:02:56;;;;;;;4.93;2.47;;;;;;;10.92;100.00;101008.38;10136208;28;20038;-71
2021/12/30 16:07:54;;;;;;;4.57;2.78;;;;;;;10.89;100.00;101014.47;10139959;28;20039;-70
2021/12/30 16:12:51;;;;;;;5.95;3.85;;;;;;;10.89;100.00;101015.28;10127507;28;20458;-70
2021/12/30 16:17:48;;;;;;;5.97;3.45;;;;;;;10.92;100.00;101024.78;10133095;28;20039;-70
2021/12/30 16:22:49;;;;;;;7.03;3.65;;;;;;;10.91;100.00;101028.66;10130411;28;20706;-70
2021/12/30 16:27:45;;;;;;;8.38;4.18;;;;;;;10.90;100.00;101027.81;10120277;28;21672;-70
2021/12/30 16:32:42;;;;;;;6.97;4.50;;;;;;;10.89;100.00;101036.34;10143336;28;20038;-70
2021/12/30 16:37:39;;;;;;;7.00;3.95;;;;;;;10.89;100.00;101053.56;10132789;28;20680;-71
2021/12/30 16:42:41;;;;;;;8.80;5.35;;;;;;;10.87;100.00;101049.53;10142589;28;20065;-70
2021/12/30 16:47:39;;;;;;;6.45;4.13;;;;;;;10.86;100.00;101053.38;10141206;28;20050;-70
2021/12/30 16:52:35;;;;;;;8.90;4.13;;;;;;;10.87;100.00;101077.69;10102997;28;20092;-70
2021/12/30 16:57:32;;;;;;;6.97;4.55;;;;;;;10.88;100.00;101078.50;10115111;28;20093;-70
2021/12/30 17:02:29;;;;;;;9.90;4.50;;;;;;;10.86;100.00;101069.78;10139746;28;20088;-70
2021/12/30 17:07:26;;;;;;;8.93;4.95;;;;;;;10.85;100.00;101073.66;10138054;28;20054;-70
2021/12/30 17:12:23;;;;;;;10.63;5.22;;;;;;;10.85;100.00;101079.13;10127720;28;20046;-70
2021/12/30 17:17:19;;;;;;;10.25;6.05;;;;;;;10.87;100.00;101093.31;10131520;28;20042;-70
2021/12/30 17:22:16;;;;;;;10.40;5.93;;;;;;;10.83;100.00;101076.69;10141362;28;20719;-69
2021/12/30 17:27:14;;;;;;;12.13;5.55;;;;;;;10.88;100.00;101089.44;10130017;28;20487;-70
2021/12/30 17:32:11;;;;;;;12.55;7.30;;;;;;;10.87;100.00;101098.78;10148768;28;20069;-69
2021/12/30 17:37:09;;;;;;;9.40;7.05;;;;;;;10.87;100.00;101087.84;10142142;28;20117;-70
2021/12/30 17:42:06;;;;;;;10.25;6.25;;;;;;;10.87;100.00;101098.78;10138382;28;20047;-70
2021/12/30 17:47:04;;;;;;;11.57;5.70;;;;;;;10.85;100.00;101090.88;10145062;28;20046;-70
2021/12/30 17:52:02;;;;;;;10.48;6.07;;;;;;;10.85;100.00;101117.44;10146638;28;20126;-69
2021/12/30 17:56:59;;;;;;;12.95;7.35;;;;;;;10.87;100.00;101112.44;10145564;28;20913;-70
2021/12/30 18:01:56;;;;;;;10.95;6.80;;;;;;;10.86;100.00;101119.03;10147294;28;20546;-69
2021/12/30 18:06:52;;;;;;;11.88;6.78;;;;;;;10.87;100.00;101115.19;10137182;28;20038;-68
2021/12/30 18:11:49;;;;;;;13.85;7.30;;;;;;;10.82;100.00;101123.53;10138964;28;20100;-69
2021/12/30 18:16:46;;;;;;;11.27;7.85;;;;;;;10.84;100.00;101127.56;10129570;28;20074;-69
2021/12/30 18:21:42;;;;;;;14.27;8.90;;;;;;;10.86;100.00;101121.75;10126149;28;20057;-70
2021/12/30 18:26:39;;;;;;;11.60;7.68;;;;;;;10.82;100.00;101113.38;10135303;28;20494;-69
2021/12/30 18:31:36;;;;;;;15.07;8.32;;;;;;;10.84;100.00;101115.81;10134016;28;20133;-69
2021/12/30 18:36:32;;;;;;;13.55;8.45;;;;;;;10.86;100.00;101113.56;10141971;28;20042;-69
2021/12/30 18:41:29;;;;;;;15.75;9.30;;;;;;;10.84;100.00;101111.16;10140426;28;20054;-68
2021/12/30 18:46:25;;;;;;;14.77;10.23;;;;;;;10.88;100.00;101116.78;10133012;28;20050;-69
2021/12/30 18:51:24;;;;;;;17.85;10.32;;;;;;;10.87;100.00;101120.66;10141493;28;20039;-69
2021/12/30 18:56:21;;;;;;;16.05;9.85;;;;;;;10.87;100.00;101121.47;10117176;28;20050;-70
2021/12/30 19:01:17;;;;;;;20.33;10.52;;;;;;;10.88;100.00;101131.28;10144362;28;20482;-70
2021/12/30 19:06:14;;;;;;;17.08;9.15;;;;;;;10.86;100.00;101130.81;10128893;28;20051;-69
2021/12/30 19:11:13;;;;;;;17.67;11.13;;;;;;;10.86;100.00;101139.00;10133529;28;20077;-70
2021/12/30 19:16:10;;;;;;;17.08;10.13;;;;;;;10.87;100.00;101145.28;10142824;28;20108;-70
2021/12/30 19:21:10;;;;;;;15.70;9.52;;;;;;;10.87;100.00;101137.88;10153083;28;20050;-71
2021/12/30 19:26:08;;;;;;;14.55;9.60;;;;;;;10.85;100.00;101140.09;10142551;28;20137;-71
2021/12/30 19:31:06;;;;;;;18.95;11.00;;;;;;;10.86;100.00;101146.38;10127847;28;20054;-69
2021/12/30 19:36:03;;;;;;;16.17;10.48;;;;;;;10.84;100.00;101154.13;10150988;28;20133;-69
2021/12/30 19:41:04;;;;;;;17.02;9.60;;;;;;;10.86;100.00;101143.66;10131350;28;20459;-70
2021/12/30 19:46:01;;;;;;;18.25;10.73;;;;;;;10.87;100.00;101142.53;10144266;28;20050;-69
2021/12/30 19:50:57;;;;;;;16.23;10.20;;;;;;;10.90;100.00;101141.91;10140033;28;20418;-70
2021/12/30 19:55:54;;;;;;;18.55;10.57;;;;;;;10.85;100.00;101161.19;10108405;28;20066;-70
2021/12/30 20:00:51;;;;;;;13.63;9.35;;;;;;;10.84;100.00;101174.06;10145916;28;20042;-69
2021/12/30 20:05:48;;;;;;;13.85;9.10;;;;;;;10.86;100.00;101173.75;10137074;28;20039;-70
2021/12/30 20:10:46;;;;;;;19.45;9.98;;;;;;;10.86;100.00;101180.03;10134336;28;20082;-71
2021/12/30 20:15:44;;;;;;;17.02;9.50;;;;;;;10.87;100.00;101186.31;10137831;28;20057;-70
2021/12/30 20:20:41;;;;;;;16.23;11.02;;;;;;;10.88;100.00;101182.44;10130593;28;20129;-71
2021/12/30 20:25:40;;;;;;;17.75;11.65;;;;;;;10.87;100.00;101195.31;10141671;28;20054;-70
2021/12/30 20:30:42;;;;;;;17.08;10.88;;;;;;;10.87;100.00;101186.31;10124032;28;20046;-70
2021/12/30 20:35:41;;;;;;;20.75;10.52;;;;;;;10.86;100.00;101190.97;10141584;28;20054;-70
2021/12/30 20:40:42;;;;;;;17.55;11.30;;;;;;;10.85;100.00;101189.34;10141128;28;20046;-69
2021/12/30 20:45:41;;;;;;;16.75;10.57;;;;;;;10.89;100.00;101189.56;10133473;28;20073;-70
2021/12/30 20:50:39;;;;;;;19.40;11.52;;;;;;;10.88;100.00;101182.44;10126540;28;20042;-70
2021/12/30 20:55:38;;;;;;;17.80;10.23;;;;;;;10.86;100.00;101184.69;10134980;28;20132;-69
2021/12/30 21:00:36;;;;;;;20.95;10.95;;;;;;;10.87;100.00;101197.25;10137313;28;20138;-70
2021/12/30 21:05:35;;;;;;;15.95;8.98;;;;;;;10.85;100.00;101177.59;10134104;28;20542;-70
2021/12/30 21:10:35;;;;;;;16.23;11.32;;;;;;;10.87;100.00;101192.59;10134579;28;20053;-69
2021/12/30 21:15:33;;;;;;;20.45;12.13;;;;;;;10.87;100.00;101197.25;10145646;28;20070;-70
2021/12/30 21:20:30;;;;;;;20.05;11.85;;;;;;;10.88;100.00;101204.34;10137539;28;20058;-70
2021/12/30 21:25:26;;;;;;;20.02;11.52;;;;;;;10.92;100.00;101199.88;10137562;28;20066;-70
2021/12/30 21:30:25;;;;;;;15.52;11.07;;;;;;;10.90;100.00;101211.13;10134363;28;20129;-70
2021/12/30 21:35:24;;;;;;;18.70;10.75;;;;;;;10.92;100.00;101194.41;10125775;28;20414;-74
2021/12/30 21:40:22;;;;;;;19.33;10.70;;;;;;;10.92;100.00;101194.41;10131983;28;20097;-74
2021/12/30 21:45:19;;;;;;;15.02;9.85;;;;;;;10.92;100.00;101195.19;10127672;28;20685;-71
2021/12/30 21:50:17;;;;;;;16.65;9.50;;;;;;;10.90;100.00;101207.56;10157507;28;20144;-69
2021/12/30 21:55:16;;;;;;;15.32;9.68;;;;;;;10.87;100.00;101203.53;10142696;28;20234;-69
2021/12/30 22:00:16;;;;;;;15.57;10.70;;;;;;;10.91;100.00;101199.06;10143064;28;20043;-69
2021/12/30 22:05:16;;;;;;;13.93;9.48;;;;;;;10.93;100.00;101201.47;10139269;28;20041;-69
2021/12/30 22:10:13;;;;;;;13.13;7.55;;;;;;;10.94;100.00;101203.13;10130337;28;20077;-68
2021/12/30 22:15:10;;;;;;;13.02;8.30;;;;;;;10.96;100.00;101200.88;10139675;28;20556;-70
2021/12/30 22:20:10;;;;;;;12.02;7.55;;;;;;;10.96;100.00;101211.81;10128933;28;20114;-68
2021/12/30 22:25:07;;;;;;;11.07;6.90;;;;;;;10.97;100.00;101197.00;10146703;28;20129;-68